Time;durP1;ratioP1;P1;durP2;ratioP2;P2;SDS_P1;SDS_P2;PMS_P1;PMS_P2;Temp;Humidity;BMP_temperature;BMP_pressure;BME280_temperature;BME280_humidity;BME280_pressure;Samples;Min_cycle;Max_cycle;Signal;HPM_P1;HPM_P2
2023/06/12 00:03:35;;;;;;;4.65;1.90;;;;;;;17.54;42.30;99824.59;10576651;28;20047;-61
2023/06/12 00:08:41;;;;;;;5.00;2.03;;;;;;;17.43;42.44;99817.63;10562884;28;20044;-62
2023/06/12 00:13:47;;;;;;;5.63;2.10;;;;;;;17.17;43.49;99826.19;10549111;28;20512;-61
2023/06/12 00:18:49;;;;;;;3.72;2.20;;;;;;;17.15;43.06;99831.59;10564532;27;20690;-61
2023/06/12 00:23:51;;;;;;;3.30;2.03;;;;;;;17.03;43.35;99835.34;10554431;28;20134;-62
2023/06/12 00:28:53;;;;;;;3.75;1.95;;;;;;;16.99;43.50;99836.56;10565521;27;20055;-61
2023/06/12 00:33:55;;;;;;;3.78;2.08;;;;;;;16.77;44.29;99839.41;10565418;28;20116;-62
2023/06/12 00:38:57;;;;;;;6.88;2.22;;;;;;;16.70;44.44;99831.19;10565082;28;20542;-62
2023/06/12 00:44:00;;;;;;;3.42;2.13;;;;;;;16.54;44.87;99837.91;10558875;27;20062;-62
2023/06/12 00:49:02;;;;;;;3.30;1.80;;;;;;;16.51;44.96;99828.44;10558673;28;20066;-62
2023/06/12 00:54:04;;;;;;;3.90;2.10;;;;;;;16.48;45.08;99826.09;10565441;28;20352;-61
2023/06/12 00:59:06;;;;;;;3.78;2.10;;;;;;;16.33;45.33;99835.25;10550188;28;20150;-61
2023/06/12 01:04:09;;;;;;;4.88;2.00;;;;;;;16.12;45.92;99832.63;10564260;28;20039;-61
2023/06/12 01:09:16;;;;;;;3.95;2.20;;;;;;;16.05;47.13;99828.00;10558888;28;20191;-62
2023/06/12 01:14:20;;;;;;;4.07;2.20;;;;;;;15.99;46.78;99831.16;10565540;27;20660;-62
2023/06/12 01:19:22;;;;;;;3.63;2.00;;;;;;;15.85;46.96;99832.31;10562992;27;20503;-61
2023/06/12 01:24:48;;;;;;;3.35;2.08;;;;;;;15.88;47.88;99842.59;10572190;27;20043;-62
2023/06/12 01:30:15;;;;;;;3.88;2.13;;;;;;;15.76;48.46;99835.72;10536594;27;20593;-62
2023/06/12 01:35:24;;;;;;;3.72;2.35;;;;;;;15.68;47.28;99834.66;10569804;27;20130;-62
2023/06/12 01:40:29;;;;;;;3.72;2.13;;;;;;;15.56;47.54;99839.16;10555511;27;20073;-61
2023/06/12 01:45:33;;;;;;;4.60;2.30;;;;;;;15.16;48.57;99840.66;10572658;27;20047;-61
2023/06/12 01:50:35;;;;;;;4.05;2.03;;;;;;;15.25;48.49;99834.63;10564653;27;20051;-62
2023/06/12 01:55:38;;;;;;;3.85;2.22;;;;;;;15.33;48.31;99840.13;10554612;27;20055;-61
2023/06/12 02:00:41;;;;;;;4.28;2.30;;;;;;;15.24;48.65;99836.47;10559570;27;20035;-61
2023/06/12 02:05:44;;;;;;;3.42;1.90;;;;;;;15.18;48.66;99838.75;10570274;27;20039;-62
2023/06/12 02:10:46;;;;;;;3.90;2.33;;;;;;;14.92;49.17;99846.06;10588206;27;20313;-61
2023/06/12 02:15:48;;;;;;;3.88;2.20;;;;;;;14.76;49.45;99848.22;10564293;27;20093;-61
2023/06/12 02:20:50;;;;;;;4.05;2.15;;;;;;;14.78;49.63;99850.75;10595842;27;20522;-61
2023/06/12 02:25:51;;;;;;;4.38;2.40;;;;;;;14.64;49.65;99851.81;10575981;27;20047;-61
2023/06/12 02:30:54;;;;;;;3.50;2.30;;;;;;;14.46;50.12;99853.22;10558343;27;20126;-61
2023/06/12 02:35:56;;;;;;;3.90;2.15;;;;;;;14.33;50.63;99853.31;10583425;27;20059;-61
2023/06/12 02:40:58;;;;;;;3.88;2.15;;;;;;;14.37;50.62;99853.94;10553085;27;20040;-61
2023/06/12 02:46:00;;;;;;;3.50;2.15;;;;;;;14.41;50.60;99863.28;10563010;27;20050;-61
2023/06/12 02:51:05;;;;;;;4.05;2.30;;;;;;;14.45;50.69;99859.44;10561375;27;20178;-61
2023/06/12 02:56:08;;;;;;;3.80;2.28;;;;;;;14.42;50.96;99855.25;10589077;27;20423;-61
2023/06/12 03:01:10;;;;;;;4.32;2.20;;;;;;;14.53;50.63;99862.34;10540969;27;20042;-61
2023/06/12 03:06:12;;;;;;;3.85;2.20;;;;;;;14.77;50.37;99870.97;10550781;27;20048;-61
2023/06/12 03:11:14;;;;;;;5.70;2.47;;;;;;;14.54;50.80;99871.91;10563619;27;20098;-61
2023/06/12 03:16:20;;;;;;;3.42;2.00;;;;;;;14.55;50.94;99876.22;10552219;27;20050;-61
2023/06/12 03:21:23;;;;;;;4.38;2.20;;;;;;;14.73;50.73;99881.88;10549095;27;20039;-61
2023/06/12 03:26:27;;;;;;;4.20;2.35;;;;;;;14.98;50.47;99886.91;10563104;27;20491;-61
2023/06/12 03:31:29;;;;;;;3.67;2.20;;;;;;;14.98;50.26;99882.44;10557873;27;20078;-61
2023/06/12 03:36:37;;;;;;;3.80;2.17;;;;;;;15.03;50.26;99884.72;10559510;27;20440;-61
2023/06/12 03:41:55;;;;;;;4.60;2.58;;;;;;;15.11;51.25;99880.53;10568196;27;20131;-61
2023/06/12 03:47:05;;;;;;;3.70;2.10;;;;;;;15.17;50.42;99884.47;10549708;27;20051;-61
2023/06/12 03:52:07;;;;;;;3.88;2.08;;;;;;;15.28;50.25;99881.84;10557934;27;20056;-61
2023/06/12 03:57:10;;;;;;;4.18;2.20;;;;;;;15.38;50.15;99898.59;10570183;27;20055;-61
2023/06/12 04:02:12;;;;;;;4.57;2.40;;;;;;;15.41;49.99;99899.16;10556457;28;20051;-63
2023/06/12 04:07:15;;;;;;;3.97;2.30;;;;;;;15.47;49.84;99900.47;10552857;28;20047;-63
2023/06/12 04:12:17;;;;;;;3.97;2.22;;;;;;;15.61;49.93;99908.16;10562943;28;20482;-63
2023/06/12 04:17:19;;;;;;;3.92;2.28;;;;;;;15.80;49.40;99915.38;10577739;27;20488;-62
2023/06/12 04:22:22;;;;;;;6.28;2.35;;;;;;;15.93;49.29;99914.28;10554215;28;20036;-62
2023/06/12 04:27:25;;;;;;;3.83;2.30;;;;;;;16.08;49.18;99913.00;10547978;28;20159;-62
2023/06/12 04:32:29;;;;;;;4.20;2.38;;;;;;;16.19;48.87;99912.13;10565381;28;20051;-62
2023/06/12 04:37:31;;;;;;;4.47;2.10;;;;;;;16.02;49.25;99897.69;10565729;28;20059;-61
2023/06/12 04:42:33;;;;;;;5.22;2.20;;;;;;;16.50;48.67;99900.72;10558605;28;20131;-61
2023/06/12 04:47:36;;;;;;;3.38;2.05;;;;;;;16.90;47.89;99898.13;10572754;27;20108;-61
2023/06/12 04:52:41;;;;;;;3.53;1.95;;;;;;;18.44;46.04;99892.94;10561327;27;20051;-61
2023/06/12 04:57:43;;;;;;;4.80;2.30;;;;;;;21.09;42.55;99889.56;10569437;27;20048;-61
2023/06/12 05:02:49;;;;;;;3.30;2.30;;;;;;;24.24;37.91;99876.56;10564528;27;20091;-62
2023/06/12 05:07:51;;;;;;;4.28;2.30;;;;;;;26.36;35.13;99873.50;10579669;27;20035;-62
2023/06/12 05:12:53;;;;;;;3.75;2.00;;;;;;;27.76;32.66;99865.00;10572186;27;20128;-62
2023/06/12 05:17:55;;;;;;;4.53;2.13;;;;;;;25.39;34.71;99879.50;10571600;27;20042;-62
2023/06/12 05:22:58;;;;;;;3.85;2.17;;;;;;;23.60;36.51;99893.00;10559211;27;20127;-62
2023/06/12 05:28:00;;;;;;;3.78;1.90;;;;;;;25.80;33.84;99885.09;10559480;27;20562;-62
2023/06/12 05:33:02;;;;;;;3.80;2.47;;;;;;;25.45;33.48;99888.63;10575981;27;20568;-61
2023/06/12 05:38:06;;;;;;;2.75;1.77;;;;;;;23.34;35.83;99899.47;10564614;27;20038;-62
2023/06/12 05:43:08;;;;;;;3.08;1.95;;;;;;;22.59;37.15;99892.84;10560041;27;20052;-61
2023/06/12 05:48:11;;;;;;;3.15;2.17;;;;;;;22.50;36.53;99904.50;10564337;27;20048;-62
2023/06/12 05:53:13;;;;;;;3.88;2.13;;;;;;;22.23;36.14;99899.50;10567852;27;20078;-61
2023/06/12 05:58:16;;;;;;;3.50;1.90;;;;;;;22.13;36.77;99895.38;10550431;27;20054;-61
2023/06/12 06:03:19;;;;;;;3.63;1.85;;;;;;;21.95;37.33;99905.28;10553665;27;20043;-61
2023/06/12 06:08:22;;;;;;;4.45;2.22;;;;;;;22.15;37.04;99907.50;10560980;27;20124;-61
2023/06/12 06:13:25;;;;;;;3.70;2.30;;;;;;;22.53;36.80;99914.84;10578415;27;20058;-61
2023/06/12 06:18:28;;;;;;;3.95;2.22;;;;;;;22.38;36.80;99913.84;10562109;27;20523;-61
2023/06/12 06:23:32;;;;;;;3.42;2.25;;;;;;;22.38;36.74;99916.50;10549549;27;20100;-61
2023/06/12 06:28:34;;;;;;;3.70;2.15;;;;;;;22.38;36.99;99918.31;10574239;27;20506;-61
2023/06/12 06:33:37;;;;;;;3.47;2.10;;;;;;;23.19;36.16;99919.03;10563595;27;20318;-61
2023/06/12 06:38:40;;;;;;;5.47;2.22;;;;;;;23.46;35.49;99915.94;10556449;27;20091;-61
2023/06/12 06:43:42;;;;;;;3.85;1.95;;;;;;;24.11;34.94;99919.91;10565728;27;20811;-61
2023/06/12 06:48:47;;;;;;;4.35;2.20;;;;;;;24.90;33.63;99921.22;10566709;27;20070;-61
2023/06/12 06:53:50;;;;;;;4.07;2.47;;;;;;;26.17;32.92;99918.91;10553180;27;20043;-61
2023/06/12 06:58:54;;;;;;;4.07;2.38;;;;;;;26.76;32.04;99917.56;10570290;27;20078;-61
2023/06/12 07:03:56;;;;;;;5.13;2.28;;;;;;;25.55;32.71;99919.44;10560090;27;20274;-61
2023/06/12 07:08:58;;;;;;;4.82;2.65;;;;;;;25.83;32.57;99915.03;10569020;27;20047;-61
2023/06/12 07:14:00;;;;;;;5.35;2.50;;;;;;;27.52;31.23;99908.53;10561039;27;20047;-61
2023/06/12 07:19:03;;;;;;;3.92;2.03;;;;;;;28.18;30.22;99901.44;10558495;27;20047;-61
2023/06/12 07:24:05;;;;;;;4.20;2.40;;;;;;;26.29;31.34;99904.78;10568413;27;20474;-61
2023/06/12 07:29:07;;;;;;;5.63;2.03;;;;;;;25.73;32.20;99906.47;10567964;27;20039;-61
2023/06/12 07:34:09;;;;;;;4.45;2.53;;;;;;;27.52;30.23;99891.56;10555035;27;20068;-62
2023/06/12 07:39:13;;;;;;;3.55;2.10;;;;;;;28.60;29.56;99884.94;10565853;27;20108;-62
2023/06/12 07:44:15;;;;;;;4.10;2.25;;;;;;;29.57;29.01;99883.03;10563570;27;20047;-62
2023/06/12 07:49:18;;;;;;;4.18;2.30;;;;;;;30.61;27.87;99884.19;10568865;27;20047;-62
2023/06/12 07:54:21;;;;;;;6.75;2.53;;;;;;;30.40;27.46;99881.84;10564805;27;20055;-62
2023/06/12 07:59:24;;;;;;;3.42;2.35;;;;;;;29.94;27.41;99876.00;10556718;27;20046;-62
2023/06/12 08:04:31;;;;;;;5.45;2.45;;;;;;;30.59;26.95;99877.34;10553471;28;20407;-62
2023/06/12 08:09:34;;;;;;;4.70;2.50;;;;;;;30.35;27.30;99862.81;10575422;28;20055;-62
2023/06/12 08:14:36;;;;;;;3.83;2.45;;;;;;;31.20;26.48;99859.25;10568117;28;20525;-62
2023/06/12 08:19:39;;;;;;;5.72;2.40;;;;;;;31.15;26.20;99852.88;10563244;28;20061;-63
2023/06/12 08:24:43;;;;;;;4.38;2.55;;;;;;;30.89;26.28;99847.75;10572646;27;20058;-63
2023/06/12 08:29:46;;;;;;;3.45;2.22;;;;;;;30.09;27.13;99851.41;10565875;27;20050;-64
2023/06/12 08:34:50;;;;;;;4.05;2.40;;;;;;;31.46;26.05;99833.75;10577320;27;20087;-62
2023/06/12 08:39:52;;;;;;;3.72;2.38;;;;;;;31.38;25.16;99839.47;10584093;27;20035;-62
2023/06/12 08:45:03;;;;;;;4.20;2.50;;;;;;;31.97;24.24;99827.81;10574854;27;20078;-63
2023/06/12 08:50:22;;;;;;;3.63;2.30;;;;;;;32.43;24.98;99827.06;10581937;27;20283;-63
2023/06/12 08:55:26;;;;;;;4.07;2.42;;;;;;;32.48;24.49;99819.03;10572373;27;20051;-63
2023/06/12 09:00:27;;;;;;;3.35;2.50;;;;;;;31.56;25.20;99823.22;10573729;27;20329;-63
2023/06/12 09:05:34;;;;;;;4.97;2.72;;;;;;;30.99;25.12;99815.66;10574851;27;20293;-63
2023/06/12 09:10:38;;;;;;;3.88;2.60;;;;;;;31.15;25.59;99815.06;10561580;27;20047;-63
2023/06/12 09:15:50;;;;;;;3.47;2.35;;;;;;;30.14;26.24;99816.50;10579868;27;20117;-63
2023/06/12 09:20:52;;;;;;;4.07;2.65;;;;;;;30.35;26.27;99800.75;10596614;27;20050;-63
2023/06/12 09:25:55;;;;;;;3.95;2.15;;;;;;;29.80;25.83;99815.91;10587353;27;20142;-63
2023/06/12 09:31:16;;;;;;;3.80;2.42;;;;;;;29.78;27.19;99801.81;10550905;27;20828;-63
2023/06/12 09:36:20;;;;;;;3.65;2.13;;;;;;;30.28;26.77;99801.84;10584898;27;20174;-63
2023/06/12 09:41:24;;;;;;;3.70;2.17;;;;;;;30.57;26.41;99790.38;10554159;27;20039;-63
2023/06/12 09:46:26;;;;;;;3.63;2.15;;;;;;;31.03;24.96;99801.47;10587891;27;20530;-63
2023/06/12 09:51:30;;;;;;;3.83;2.10;;;;;;;30.16;25.76;99803.59;10563004;27;20032;-63
2023/06/12 09:56:33;;;;;;;3.63;2.13;;;;;;;29.95;26.21;99799.41;10582808;27;20054;-64
2023/06/12 10:01:39;;;;;;;3.22;2.10;;;;;;;29.50;25.68;99798.69;10589266;27;20047;-63
2023/06/12 10:06:42;;;;;;;3.17;1.95;;;;;;;29.61;25.56;99784.53;10581295;27;20058;-63
2023/06/12 10:11:45;;;;;;;4.78;2.40;;;;;;;30.12;25.34;99784.34;10552108;27;20317;-63
2023/06/12 10:16:48;;;;;;;4.78;2.10;;;;;;;30.70;25.08;99779.44;10561293;27;20047;-63
2023/06/12 10:21:55;;;;;;;3.83;2.17;;;;;;;30.24;24.73;99785.28;10559696;27;20046;-63
2023/06/12 10:26:57;;;;;;;3.83;1.90;;;;;;;30.19;24.69;99779.69;10569080;27;20039;-63
2023/06/12 10:32:05;;;;;;;3.22;1.90;;;;;;;30.21;24.15;99779.50;10561513;27;20138;-63
2023/06/12 10:37:30;;;;;;;3.63;2.20;;;;;;;30.18;24.15;99772.66;10559787;27;20126;-63
2023/06/12 10:42:47;;;;;;;3.53;2.28;;;;;;;29.96;24.09;99770.59;10572416;27;20120;-63
2023/06/12 10:48:11;;;;;;;3.53;2.20;;;;;;;29.69;23.67;99757.28;10565425;27;20148;-63
2023/06/12 10:53:45;;;;;;;3.17;2.08;;;;;;;29.51;24.13;99761.78;10555687;27;20049;-63
2023/06/12 10:58:56;;;;;;;3.83;2.10;;;;;;;29.36;23.41;99772.03;10568983;27;20051;-63
2023/06/12 11:03:58;;;;;;;3.92;2.17;;;;;;;29.44;22.42;99758.31;10582361;27;20047;-63
2023/06/12 11:09:09;;;;;;;3.97;2.28;;;;;;;28.96;24.17;99756.06;10569602;27;20118;-63
2023/06/12 11:14:10;;;;;;;4.32;2.38;;;;;;;29.06;24.27;99755.59;10563029;27;20138;-63
2023/06/12 11:19:12;;;;;;;3.33;1.95;;;;;;;28.05;24.16;99756.25;10569209;27;20054;-63
2023/06/12 11:24:15;;;;;;;3.88;2.15;;;;;;;28.55;24.26;99757.41;10575832;27;20213;-63
2023/06/12 11:29:19;;;;;;;3.92;2.50;;;;;;;28.77;23.84;99742.63;10545854;27;20055;-63
2023/06/12 11:34:22;;;;;;;3.05;1.90;;;;;;;28.74;24.14;99749.31;10569627;27;20039;-63
2023/06/12 11:39:24;;;;;;;3.60;2.28;;;;;;;28.81;24.58;99751.94;10555030;27;20249;-62
2023/06/12 11:44:29;;;;;;;4.18;2.58;;;;;;;29.39;24.24;99748.19;10570464;27;20198;-63
2023/06/12 11:49:32;;;;;;;3.78;2.00;;;;;;;29.24;23.63;99754.88;10571045;27;20054;-63
2023/06/12 11:54:55;;;;;;;3.55;2.08;;;;;;;29.15;23.81;99746.25;10560767;27;20131;-63
2023/06/12 12:00:14;;;;;;;3.38;2.28;;;;;;;29.47;22.48;99739.00;10557686;27;20642;-63
2023/06/12 12:05:22;;;;;;;3.70;2.47;;;;;;;29.62;22.46;99731.44;10550347;28;20729;-64
2023/06/12 12:10:25;;;;;;;3.75;2.22;;;;;;;29.57;22.91;99723.19;10548840;28;20463;-63
2023/06/12 12:15:30;;;;;;;4.88;2.30;;;;;;;29.56;22.13;99729.63;10546187;28;20039;-63
2023/06/12 12:20:34;;;;;;;3.60;2.35;;;;;;;28.70;22.87;99731.09;10554959;28;20485;-63
2023/06/12 12:25:37;;;;;;;4.18;2.20;;;;;;;28.48;22.90;99732.41;10560493;28;20043;-63
2023/06/12 12:30:40;;;;;;;4.60;2.35;;;;;;;28.86;23.11;99726.09;10579911;28;20513;-63
2023/06/12 12:35:42;;;;;;;3.53;2.30;;;;;;;29.09;22.65;99725.56;10567838;27;20076;-64
2023/06/12 12:40:44;;;;;;;4.20;2.50;;;;;;;28.79;23.03;99725.25;10577331;28;20456;-63
2023/06/12 12:45:46;;;;;;;3.58;2.30;;;;;;;28.64;23.11;99731.94;10545911;28;20070;-63
2023/06/12 12:50:48;;;;;;;3.70;2.40;;;;;;;28.96;22.93;99718.38;10553281;28;20131;-63
2023/06/12 12:56:09;;;;;;;5.03;2.08;;;;;;;29.57;22.77;99718.63;10552779;28;20046;-64
2023/06/12 13:01:11;;;;;;;3.72;2.40;;;;;;;29.32;22.32;99716.88;10547152;28;20494;-64
2023/06/12 13:06:13;;;;;;;3.53;2.45;;;;;;;29.22;22.28;99711.16;10555800;27;20047;-64
2023/06/12 13:11:15;;;;;;;4.10;2.50;;;;;;;29.37;22.26;99699.06;10555907;27;20079;-64
2023/06/12 13:16:19;;;;;;;4.22;2.28;;;;;;;29.55;22.14;99698.31;10582692;27;20428;-64
2023/06/12 13:21:21;;;;;;;3.72;2.25;;;;;;;28.60;22.71;99706.50;10585053;27;20039;-64
2023/06/12 13:26:24;;;;;;;4.65;2.60;;;;;;;28.04;23.56;99708.88;10564543;27;20608;-63
2023/06/12 13:31:26;;;;;;;3.35;2.33;;;;;;;27.97;23.31;99702.72;10552621;27;20142;-63
2023/06/12 13:36:28;;;;;;;4.03;2.67;;;;;;;28.39;23.42;99696.00;10573213;27;20068;-64
2023/06/12 13:41:30;;;;;;;3.70;2.35;;;;;;;28.83;22.68;99706.78;10563870;27;20039;-64
2023/06/12 13:46:31;;;;;;;3.78;2.67;;;;;;;29.13;23.02;99683.69;10557982;27;20130;-63
2023/06/12 13:51:35;;;;;;;4.18;2.50;;;;;;;29.06;22.28;99672.94;10563701;27;20604;-63
2023/06/12 13:56:38;;;;;;;4.20;2.72;;;;;;;28.90;22.54;99673.47;10576382;27;20558;-63
2023/06/12 14:01:41;;;;;;;3.95;2.45;;;;;;;29.06;22.63;99677.50;10594838;27;20055;-63
2023/06/12 14:06:43;;;;;;;4.85;2.67;;;;;;;29.31;22.56;99678.38;10576420;27;20347;-64
2023/06/12 14:11:45;;;;;;;4.25;2.78;;;;;;;28.69;22.90;99668.34;10562563;27;20055;-63
2023/06/12 14:16:47;;;;;;;4.05;2.75;;;;;;;28.86;22.86;99669.56;10575381;27;20062;-63
2023/06/12 14:21:49;;;;;;;6.93;3.00;;;;;;;28.64;23.15;99676.25;10586106;27;20039;-63
2023/06/12 14:26:51;;;;;;;4.60;2.55;;;;;;;28.33;23.00;99669.97;10575952;27;20047;-63
2023/06/12 14:31:53;;;;;;;3.88;2.75;;;;;;;28.60;22.60;99668.81;10577729;27;20305;-64
2023/06/12 14:36:55;;;;;;;4.20;2.80;;;;;;;28.86;23.29;99657.94;10563270;27;20059;-63
2023/06/12 14:41:57;;;;;;;4.47;2.83;;;;;;;27.91;23.89;99669.41;10557528;27;20054;-64
2023/06/12 14:46:59;;;;;;;4.43;2.53;;;;;;;27.91;24.40;99665.91;10577539;27;20138;-64
2023/06/12 14:52:01;;;;;;;5.80;2.90;;;;;;;28.21;24.17;99661.69;10570772;27;20043;-63
2023/06/12 14:57:03;;;;;;;3.95;2.60;;;;;;;28.15;23.70;99657.16;10579405;27;20043;-63
2023/06/12 15:02:05;;;;;;;4.45;2.63;;;;;;;28.67;23.67;99661.53;10579590;27;20092;-64
2023/06/12 15:07:08;;;;;;;3.92;2.55;;;;;;;29.22;23.27;99641.13;10560313;27;20113;-64
2023/06/12 15:12:12;;;;;;;4.20;2.40;;;;;;;29.08;22.15;99653.88;10566636;27;20143;-63
2023/06/12 15:17:14;;;;;;;5.00;2.63;;;;;;;28.56;23.07;99644.22;10556996;27;20075;-64
2023/06/12 15:22:16;;;;;;;5.28;2.53;;;;;;;28.23;22.83;99638.94;10562527;27;20043;-64
2023/06/12 15:27:19;;;;;;;4.72;2.30;;;;;;;28.27;23.05;99650.09;10559448;27;20638;-63
2023/06/12 15:32:20;;;;;;;3.80;2.40;;;;;;;28.46;22.54;99654.59;10561264;27;20054;-63
2023/06/12 15:37:22;;;;;;;4.70;2.25;;;;;;;28.48;22.25;99639.09;10556100;27;20556;-63
2023/06/12 15:42:24;;;;;;;3.78;2.20;;;;;;;28.57;20.87;99645.03;10555707;27;20074;-63
2023/06/12 15:47:26;;;;;;;3.95;2.38;;;;;;;28.55;21.84;99626.41;10565330;27;20063;-63
2023/06/12 15:52:28;;;;;;;4.18;2.40;;;;;;;28.90;21.51;99625.00;10572838;27;20119;-63
2023/06/12 15:57:31;;;;;;;3.83;2.30;;;;;;;28.99;21.31;99618.31;10580568;27;20050;-64
2023/06/12 16:02:33;;;;;;;3.58;2.45;;;;;;;28.85;21.71;99619.44;10556850;27;20059;-63
2023/06/12 16:07:35;;;;;;;5.05;2.42;;;;;;;28.98;22.00;99602.38;10585803;28;20431;-63
2023/06/12 16:12:37;;;;;;;4.25;2.42;;;;;;;29.22;21.43;99604.25;10578738;27;20149;-64
2023/06/12 16:17:40;;;;;;;4.00;2.10;;;;;;;28.37;22.12;99606.63;10573725;28;20055;-64
2023/06/12 16:22:42;;;;;;;3.60;2.20;;;;;;;28.29;22.19;99596.94;10586628;28;20047;-64
2023/06/12 16:27:45;;;;;;;3.47;2.10;;;;;;;28.36;22.48;99603.09;10574512;28;20158;-63
2023/06/12 16:32:47;;;;;;;3.70;2.30;;;;;;;28.62;22.55;99596.78;10544202;27;20051;-64
2023/06/12 16:37:51;;;;;;;3.88;2.40;;;;;;;28.61;22.69;99589.72;10580624;28;20058;-63
2023/06/12 16:42:54;;;;;;;4.00;2.35;;;;;;;28.50;22.25;99590.44;10567314;27;20042;-64
2023/06/12 16:47:55;;;;;;;3.60;2.10;;;;;;;28.28;22.68;99585.31;10562635;27;20087;-63
2023/06/12 16:52:57;;;;;;;3.63;2.08;;;;;;;28.45;22.65;99583.00;10568952;27;20048;-64
2023/06/12 16:57:59;;;;;;;3.17;2.20;;;;;;;28.19;22.61;99583.09;10594403;27;20047;-64
2023/06/12 17:03:06;;;;;;;5.35;2.50;;;;;;;28.27;22.66;99585.53;10573971;27;20048;-64
2023/06/12 17:08:08;;;;;;;4.93;2.22;;;;;;;28.14;22.84;99580.22;10566921;27;20202;-64
2023/06/12 17:13:10;;;;;;;3.55;2.13;;;;;;;28.20;23.13;99574.81;10555200;27;20055;-64
2023/06/12 17:18:12;;;;;;;3.30;2.20;;;;;;;28.13;22.31;99578.56;10565225;27;20047;-64
2023/06/12 17:23:14;;;;;;;3.22;2.10;;;;;;;27.87;23.03;99581.34;10550185;27;20071;-64
2023/06/12 17:28:16;;;;;;;4.00;2.15;;;;;;;27.93;22.67;99583.19;10569516;27;20043;-63
2023/06/12 17:33:18;;;;;;;4.10;2.20;;;;;;;27.96;23.31;99577.38;10572904;27;20096;-63
2023/06/12 17:38:20;;;;;;;6.55;2.40;;;;;;;27.85;23.41;99572.69;10559542;27;20101;-63
2023/06/12 17:43:23;;;;;;;4.05;2.15;;;;;;;27.79;23.36;99570.84;10553417;27;20047;-63
2023/06/12 17:48:25;;;;;;;3.85;2.42;;;;;;;27.75;23.44;99577.66;10552524;27;20059;-63
2023/06/12 17:53:27;;;;;;;4.40;2.55;;;;;;;27.48;23.87;99583.03;10554477;27;20065;-63
2023/06/12 17:58:29;;;;;;;3.78;2.13;;;;;;;27.22;24.04;99579.56;10570440;27;20119;-63
2023/06/12 18:03:31;;;;;;;3.17;1.95;;;;;;;27.12;24.07;99581.78;10563999;27;20122;-63
2023/06/12 18:08:37;;;;;;;3.88;2.17;;;;;;;27.01;24.60;99583.25;10558278;27;20149;-63
2023/06/12 18:13:38;;;;;;;3.35;2.00;;;;;;;26.87;24.65;99586.13;10563194;27;20051;-63
2023/06/12 18:18:40;;;;;;;2.50;1.73;;;;;;;26.71;25.16;99576.59;10555366;27;20776;-63
2023/06/12 18:23:42;;;;;;;4.07;2.30;;;;;;;26.52;25.31;99575.50;10563333;27;20035;-63
2023/06/12 18:28:44;;;;;;;3.17;2.08;;;;;;;26.29;25.43;99572.31;10562550;27;20044;-63
2023/06/12 18:33:46;;;;;;;3.75;2.08;;;;;;;26.17;25.69;99575.78;10559332;27;20158;-63
2023/06/12 18:38:48;;;;;;;6.80;2.60;;;;;;;26.02;26.46;99577.78;10562625;27;20176;-63
2023/06/12 18:43:50;;;;;;;4.47;2.20;;;;;;;25.84;26.92;99580.94;10544231;27;20035;-63
2023/06/12 18:48:52;;;;;;;3.95;2.13;;;;;;;25.64;27.37;99580.84;10564987;27;20050;-63
2023/06/12 18:53:54;;;;;;;3.83;2.13;;;;;;;25.14;26.95;99578.38;10551558;27;20039;-63
2023/06/12 18:58:57;;;;;;;4.13;2.08;;;;;;;24.99;27.24;99577.63;10548432;27;20066;-63
2023/06/12 19:03:59;;;;;;;2.78;1.85;;;;;;;24.96;27.33;99570.81;10547145;27;20180;-63
2023/06/12 19:09:02;;;;;;;3.88;2.22;;;;;;;24.82;27.15;99581.56;10558116;27;20043;-63
2023/06/12 19:14:04;;;;;;;3.17;2.00;;;;;;;24.70;27.44;99585.75;10548016;27;20053;-63
2023/06/12 19:19:07;;;;;;;3.10;1.65;;;;;;;24.57;27.41;99590.97;10572508;27;20039;-63
2023/06/12 19:24:09;;;;;;;3.10;2.00;;;;;;;24.34;27.34;99598.31;10555626;27;20043;-63
2023/06/12 19:29:11;;;;;;;3.20;1.80;;;;;;;24.25;27.46;99602.91;10585264;27;20058;-63
2023/06/12 19:34:13;;;;;;;6.20;1.92;;;;;;;24.13;27.48;99607.09;10559894;27;20760;-63
2023/06/12 19:39:14;;;;;;;3.45;1.92;;;;;;;24.03;28.06;99607.34;10574276;27;20127;-63
2023/06/12 19:44:17;;;;;;;3.72;2.10;;;;;;;23.89;28.10;99615.38;10556669;27;20532;-63
2023/06/12 19:49:19;;;;;;;3.47;1.80;;;;;;;23.64;28.09;99617.47;10563644;27;20450;-63
2023/06/12 19:54:21;;;;;;;3.00;1.92;;;;;;;23.57;28.53;99624.56;10569988;27;20131;-63
2023/06/12 19:59:26;;;;;;;3.15;1.88;;;;;;;23.43;29.21;99631.50;10570206;27;20122;-63
2023/06/12 20:04:27;;;;;;;3.05;1.70;;;;;;;23.26;29.02;99630.00;10591981;27;20142;-63
2023/06/12 20:09:30;;;;;;;2.83;1.77;;;;;;;23.20;29.07;99641.38;10594230;27;20123;-63
2023/06/12 20:14:31;;;;;;;3.00;1.80;;;;;;;22.89;29.24;99650.44;10552928;28;20135;-63
2023/06/12 20:19:34;;;;;;;3.00;1.90;;;;;;;22.62;29.30;99657.91;10565748;27;20047;-63
2023/06/12 20:24:36;;;;;;;3.83;2.08;;;;;;;22.47;29.39;99651.66;10559595;27;20473;-63
2023/06/12 20:29:41;;;;;;;2.90;1.77;;;;;;;22.23;29.80;99649.09;10595655;27;20074;-63
2023/06/12 20:34:43;;;;;;;3.22;1.90;;;;;;;22.27;30.03;99658.38;10576593;27;20047;-63
2023/06/12 20:39:44;;;;;;;4.05;1.80;;;;;;;22.21;30.27;99664.41;10557128;28;20135;-63
2023/06/12 20:44:46;;;;;;;2.90;1.75;;;;;;;22.07;31.11;99664.31;10583054;27;20062;-64
2023/06/12 20:49:48;;;;;;;3.53;2.17;;;;;;;21.79;31.63;99674.50;10565425;27;20134;-63
2023/06/12 20:54:50;;;;;;;6.47;2.17;;;;;;;21.64;32.40;99678.84;10561660;27;20146;-64
2023/06/12 20:59:52;;;;;;;3.10;1.90;;;;;;;21.33;32.95;99684.03;10562949;27;20082;-63
2023/06/12 21:04:54;;;;;;;5.32;2.42;;;;;;;20.99;33.57;99686.75;10562637;27;20146;-63
2023/06/12 21:09:56;;;;;;;3.60;2.13;;;;;;;20.87;33.85;99684.56;10558281;27;20079;-63
2023/06/12 21:14:57;;;;;;;3.08;2.15;;;;;;;20.64;34.34;99684.34;10567438;27;20613;-63
2023/06/12 21:20:02;;;;;;;4.60;2.30;;;;;;;20.63;34.42;99684.53;10568228;27;20063;-63
2023/06/12 21:25:04;;;;;;;4.60;2.55;;;;;;;20.43;34.68;99683.94;10557367;27;20188;-63
2023/06/12 21:30:07;;;;;;;3.97;2.42;;;;;;;20.40;34.95;99686.88;10555229;28;20120;-64
2023/06/12 21:35:09;;;;;;;3.95;2.15;;;;;;;20.12;35.23;99686.28;10563644;27;20047;-63
2023/06/12 21:40:11;;;;;;;3.90;2.10;;;;;;;20.08;35.58;99697.38;10553137;27;20043;-63
2023/06/12 21:45:13;;;;;;;3.53;2.08;;;;;;;19.97;35.82;99693.16;10560696;27;21003;-63
2023/06/12 21:50:15;;;;;;;4.45;2.40;;;;;;;19.48;36.25;99687.66;10557584;27;20075;-62
2023/06/12 21:55:17;;;;;;;5.45;2.50;;;;;;;19.29;36.50;99686.84;10561901;27;20487;-63
2023/06/12 22:00:19;;;;;;;5.25;1.90;;;;;;;19.41;36.47;99690.06;10556087;27;20080;-63
2023/06/12 22:05:21;;;;;;;3.75;2.13;;;;;;;19.50;36.47;99688.31;10596997;27;20988;-62
2023/06/12 22:10:23;;;;;;;4.50;2.40;;;;;;;19.23;36.83;99692.75;10593907;27;20510;-63
2023/06/12 22:15:25;;;;;;;4.85;2.40;;;;;;;19.25;36.76;99684.63;10578854;27;20090;-63
2023/06/12 22:20:27;;;;;;;3.80;2.10;;;;;;;19.20;36.49;99695.69;10597749;27;20055;-64
2023/06/12 22:25:28;;;;;;;3.25;1.80;;;;;;;19.11;36.87;99683.38;10559641;27;20085;-63
2023/06/12 22:30:31;;;;;;;3.03;2.00;;;;;;;19.14;36.50;99693.66;10571307;27;20675;-63
2023/06/12 22:35:48;;;;;;;3.38;1.85;;;;;;;19.17;36.51;99692.53;10596951;27;20535;-64
2023/06/12 22:40:50;;;;;;;4.28;1.80;;;;;;;18.88;37.12;99692.69;10588709;27;20052;-62
2023/06/12 22:45:52;;;;;;;3.63;1.88;;;;;;;18.72;37.29;99692.53;10595796;27;20356;-63
2023/06/12 22:50:53;;;;;;;4.93;2.28;;;;;;;18.73;37.22;99690.72;10587272;27;20138;-62
2023/06/12 22:55:55;;;;;;;4.65;2.10;;;;;;;18.38;37.46;99691.47;10554616;27;20563;-64
2023/06/12 23:00:57;;;;;;;3.95;2.00;;;;;;;18.16;37.75;99691.78;10579395;27;20906;-62
2023/06/12 23:06:00;;;;;;;3.10;2.00;;;;;;;18.05;37.70;99690.19;10558614;27;20402;-62
2023/06/12 23:11:02;;;;;;;3.70;2.00;;;;;;;17.94;37.55;99689.50;10565396;27;20135;-63
2023/06/12 23:16:04;;;;;;;3.70;1.88;;;;;;;18.01;37.64;99685.31;10551123;28;20043;-64
2023/06/12 23:21:07;;;;;;;3.38;1.92;;;;;;;17.67;38.30;99693.75;10558323;27;20065;-63
2023/06/12 23:26:10;;;;;;;4.20;1.92;;;;;;;17.56;38.80;99699.22;10595702;27;20096;-63
2023/06/12 23:31:12;;;;;;;4.03;2.10;;;;;;;17.68;38.21;99695.44;10574451;27;20050;-64